createdAt,value
2023-02-13T00:00:22.191Z,102556.56
2023-02-13T00:02:48.909Z,102515.41
2023-02-13T00:05:15.821Z,102514.44
2023-02-13T00:07:42.561Z,102498.81
2023-02-13T00:10:09.710Z,102516.25
2023-02-13T00:12:36.676Z,102544.31
2023-02-13T00:15:04.660Z,102565.28
2023-02-13T00:17:31.720Z,102487.59
2023-02-13T00:19:58.490Z,102520.78
2023-02-13T00:22:25.204Z,102468.50
2023-02-13T00:24:51.857Z,102502.47
2023-02-13T00:27:18.914Z,102495.38
2023-02-13T00:29:45.882Z,102477.94
2023-02-13T00:32:12.741Z,102517.22
2023-02-13T00:34:39.630Z,102523.31
2023-02-13T00:37:06.333Z,102492.84
2023-02-13T00:39:33.085Z,102507.56
2023-02-13T00:41:59.820Z,102492.72
2023-02-13T00:44:26.569Z,102496.22
2023-02-13T00:46:53.205Z,102512.75
2023-02-13T00:49:19.931Z,102497.97
2023-02-13T00:51:46.608Z,102532.91
2023-02-13T00:54:13.333Z,102476.91
2023-02-13T00:56:40.065Z,102503.88
2023-02-13T00:59:06.735Z,102557.97
2023-02-13T01:01:33.525Z,102510.78
2023-02-13T01:04:00.347Z,102522.06
2023-02-13T01:06:27.226Z,102503.56
2023-02-13T01:08:53.912Z,102487.94
2023-02-13T01:11:20.681Z,102506.16
2023-02-13T01:13:47.359Z,102496.50
2023-02-13T01:16:16.063Z,102465.06
2023-02-13T01:18:42.847Z,102510.41
2023-02-13T01:21:16.679Z,102500.00
2023-02-13T01:23:43.558Z,102508.75
2023-02-13T01:26:20.374Z,102493.94
2023-02-13T01:28:47.076Z,102500.84
2023-02-13T01:31:14.263Z,102539.34
2023-02-13T01:33:41.054Z,102475.59
2023-02-13T01:36:10.052Z,102496.56
2023-02-13T01:38:36.855Z,102486.03
2023-02-13T01:41:04.027Z,102517.28
2023-02-13T01:43:56.754Z,102546.19
2023-02-13T01:46:37.239Z,102541.81
2023-02-13T01:49:12.958Z,102490.25
2023-02-13T01:51:40.914Z,102498.94
2023-02-13T01:54:19.444Z,102509.25
2023-02-13T01:56:54.166Z,102529.19
2023-02-13T01:59:28.882Z,102531.75
2023-02-13T02:01:57.968Z,102506.59
2023-02-13T02:04:34.042Z,102534.56
2023-02-13T02:07:10.773Z,102493.56
2023-02-13T02:09:41.271Z,102459.69
2023-02-13T02:12:17.855Z,102533.78
2023-02-13T02:14:45.491Z,102443.91
2023-02-13T02:17:12.568Z,102524.16
2023-02-13T02:19:50.256Z,102490.13
2023-02-13T02:22:16.870Z,102526.97
2023-02-13T02:25:10.055Z,102528.69
2023-02-13T02:27:48.766Z,102532.25
2023-02-13T02:30:41.462Z,102533.09
2023-02-13T02:33:08.636Z,102537.34
2023-02-13T02:36:10.707Z,102512.22
2023-02-13T02:39:02.248Z,102447.44
2023-02-13T02:42:14.746Z,102520.81
2023-02-13T02:45:02.340Z,102520.00
2023-02-13T02:48:06.084Z,102468.47
2023-02-13T02:50:59.158Z,102509.59
2023-02-13T02:53:39.026Z,102510.50
2023-02-13T02:56:16.260Z,102471.19
2023-02-13T02:59:44.478Z,102511.34
2023-02-13T03:02:30.904Z,102448.50
2023-02-13T03:05:19.417Z,102451.13
2023-02-13T03:07:46.207Z,102494.78
2023-02-13T03:10:38.857Z,102486.00
2023-02-13T03:13:23.468Z,102480.66
2023-02-13T03:16:11.813Z,102479.69
2023-02-13T03:18:59.742Z,102497.28
2023-02-13T03:22:08.717Z,102514.63
2023-02-13T03:25:04.512Z,102503.41
2023-02-13T03:27:58.945Z,102506.81
2023-02-13T03:30:34.882Z,102506.72
2023-02-13T03:33:26.405Z,102504.13
2023-02-13T03:36:53.516Z,102491.91
2023-02-13T03:39:38.797Z,102499.88
2023-02-13T03:42:30.857Z,102458.88
2023-02-13T03:45:28.130Z,102419.47
2023-02-13T03:47:59.060Z,102433.50
2023-02-13T03:50:28.168Z,102402.97
2023-02-13T03:53:01.967Z,102439.50
2023-02-13T03:55:54.442Z,102457.84
2023-02-13T03:58:43.417Z,102428.16
2023-02-13T04:01:15.150Z,102494.44
2023-02-13T04:04:14.207Z,102464.78
2023-02-13T04:06:49.391Z,102503.00
2023-02-13T04:09:17.223Z,102443.72
2023-02-13T04:11:56.400Z,102427.84
2023-02-13T04:14:34.188Z,102493.25
2023-02-13T04:17:12.700Z,102459.22
2023-02-13T04:19:39.722Z,102481.03
2023-02-13T04:22:06.553Z,102489.69
2023-02-13T04:24:33.339Z,102425.19
2023-02-13T04:27:00.164Z,102419.00
2023-02-13T04:29:27.430Z,102437.38
2023-02-13T04:31:54.256Z,102426.84
2023-02-13T04:34:21.184Z,102417.47
2023-02-13T04:36:48.092Z,102440.03
2023-02-13T04:39:14.818Z,102472.31
2023-02-13T04:41:41.553Z,102460.31
2023-02-13T04:44:08.379Z,102455.84
2023-02-13T04:46:35.139Z,102504.50
2023-02-13T04:49:01.882Z,102434.66
2023-02-13T04:51:28.667Z,102454.94
2023-02-13T04:53:55.417Z,102485.13
2023-02-13T04:56:22.156Z,102464.22
2023-02-13T04:58:48.879Z,102420.75
2023-02-13T05:01:17.189Z,102466.16
2023-02-13T05:03:43.922Z,102424.13
2023-02-13T05:06:10.846Z,102495.69
2023-02-13T05:08:37.775Z,102423.28
2023-02-13T05:11:04.706Z,102453.88
2023-02-13T05:13:31.609Z,102448.50
2023-02-13T05:15:58.378Z,102429.25
2023-02-13T05:18:25.207Z,102404.66
2023-02-13T05:21:10.312Z,102478.94
2023-02-13T05:23:37.621Z,102472.78
2023-02-13T05:26:04.542Z,102439.53
2023-02-13T05:28:49.698Z,102416.06
2023-02-13T05:31:16.710Z,102424.78
2023-02-13T05:33:43.601Z,102459.81
2023-02-13T05:36:10.327Z,102457.09
2023-02-13T05:38:37.033Z,102395.91
2023-02-13T05:41:03.858Z,102393.13
2023-02-13T05:43:30.745Z,102442.81
2023-02-13T05:46:05.686Z,102416.66
2023-02-13T05:48:32.813Z,102427.00
2023-02-13T05:50:59.778Z,102457.72
2023-02-13T05:53:26.930Z,102427.00
2023-02-13T05:55:54.799Z,102400.72
2023-02-13T05:58:21.964Z,102426.97
2023-02-13T06:00:48.687Z,102406.78
2023-02-13T06:03:15.470Z,102398.94
2023-02-13T06:05:42.180Z,102441.59
2023-02-13T06:08:09.024Z,102383.03
2023-02-13T06:10:35.687Z,102389.91
2023-02-13T06:13:02.419Z,102414.31
2023-02-13T06:15:29.794Z,102401.22
2023-02-13T06:17:56.531Z,102437.88
2023-02-13T06:20:23.411Z,102411.53
2023-02-13T06:22:51.847Z,102471.91
2023-02-13T06:25:19.518Z,102476.31
2023-02-13T06:27:46.508Z,102435.19
2023-02-13T06:30:14.122Z,102464.16
2023-02-13T06:32:40.807Z,102393.31
2023-02-13T06:35:08.255Z,102431.81
2023-02-13T06:37:35.632Z,102442.16
2023-02-13T06:40:02.402Z,102424.72
2023-02-13T06:42:29.228Z,102400.31
2023-02-13T06:44:55.968Z,102430.81
2023-02-13T06:47:22.635Z,102398.72
2023-02-13T06:49:49.354Z,102405.59
2023-02-13T06:52:16.089Z,102441.44
2023-02-13T06:54:47.593Z,102422.22
2023-02-13T06:57:15.717Z,102435.44
2023-02-13T06:59:42.853Z,102479.81
2023-02-13T07:02:13.593Z,102427.56
2023-02-13T07:04:40.570Z,102427.63
2023-02-13T07:07:07.540Z,102434.53
2023-02-13T07:09:34.239Z,102427.69
2023-02-13T07:12:07.801Z,102434.59
2023-02-13T07:14:34.497Z,102408.38
2023-02-13T07:17:01.225Z,102384.84
2023-02-13T07:19:27.910Z,102402.28
2023-02-13T07:21:54.601Z,102437.06
2023-02-13T07:24:21.291Z,102422.22
2023-02-13T07:26:47.974Z,102421.28
2023-02-13T07:29:14.669Z,102380.31
2023-02-13T07:31:41.396Z,102407.41
2023-02-13T07:34:08.532Z,102408.25
2023-02-13T07:36:35.273Z,102402.13
2023-02-13T07:39:02.039Z,102413.22
2023-02-13T07:41:28.711Z,102445.50
2023-02-13T07:43:55.412Z,102429.09
2023-02-13T07:46:22.302Z,102391.53
2023-02-13T07:48:49.052Z,102412.50
2023-02-13T07:51:16.551Z,102426.47
2023-02-13T07:53:43.476Z,102397.56
2023-02-13T07:56:11.022Z,102412.31
2023-02-13T07:58:40.637Z,102466.53
2023-02-13T08:01:09.140Z,102472.53
2023-02-13T08:03:36.555Z,102427.09
2023-02-13T08:06:04.180Z,102402.03
2023-02-13T08:08:31.221Z,102472.88
2023-02-13T08:11:21.936Z,102415.38
2023-02-13T08:13:48.633Z,102418.69
2023-02-13T08:16:15.379Z,102431.06
2023-02-13T08:18:42.341Z,102420.00
2023-02-13T08:21:09.155Z,102422.56
2023-02-13T08:23:35.984Z,102392.19
2023-02-13T08:26:03.115Z,102427.72
2023-02-13T08:28:30.484Z,102403.63
2023-02-13T08:30:57.231Z,102414.41
2023-02-13T08:33:23.944Z,102407.66
2023-02-13T08:35:50.598Z,102410.78
2023-02-13T08:38:17.390Z,102419.25
2023-02-13T08:40:44.109Z,102404.06
2023-02-13T08:43:10.808Z,102378.97
2023-02-13T08:45:37.698Z,102384.72
2023-02-13T08:48:04.534Z,102397.25
2023-02-13T08:50:31.869Z,102468.66
2023-02-13T08:52:59.649Z,102385.13
2023-02-13T08:55:27.589Z,102451.44
2023-02-13T08:57:54.657Z,102445.44
2023-02-13T09:00:21.701Z,102450.81
2023-02-13T09:02:51.449Z,102409.91
2023-02-13T09:05:18.244Z,102415.22
2023-02-13T09:07:45.272Z,102400.44
2023-02-13T09:10:12.319Z,102407.41
2023-02-13T09:12:39.023Z,102410.97
2023-02-13T09:15:06.301Z,102404.78
2023-02-13T09:17:33.107Z,102391.63
2023-02-13T09:19:59.826Z,102403.50
2023-02-13T09:22:26.735Z,102364.34
2023-02-13T09:24:53.465Z,102388.78
2023-02-13T09:27:20.281Z,102431.47
2023-02-13T09:29:47.381Z,102384.34
2023-02-13T09:32:14.293Z,102390.50
2023-02-13T09:34:41.092Z,102383.53
2023-02-13T09:37:07.847Z,102359.94
2023-02-13T09:39:34.591Z,102364.50
2023-02-13T09:42:02.343Z,102358.41
2023-02-13T09:44:42.241Z,102391.25
2023-02-13T09:47:15.735Z,102396.59
2023-02-13T09:49:53.051Z,102395.75
2023-02-13T09:52:19.947Z,102421.09
2023-02-13T09:54:46.609Z,102343.56
2023-02-13T09:57:35.008Z,102416.84
2023-02-13T10:00:15.712Z,102416.97
2023-02-13T10:02:42.365Z,102413.44
2023-02-13T10:05:37.004Z,102411.78
2023-02-13T10:08:25.826Z,102379.56
2023-02-13T10:10:58.397Z,102403.03
2023-02-13T10:13:42.501Z,102409.94
2023-02-13T10:16:22.928Z,102385.66
2023-02-13T10:18:55.902Z,102345.69
2023-02-13T10:21:29.967Z,102406.63
2023-02-13T10:23:59.587Z,102400.59
2023-02-13T10:26:42.802Z,102365.75
2023-02-13T10:30:03.056Z,102364.75
2023-02-13T10:32:40.727Z,102350.94
2023-02-13T10:35:29.103Z,102378.88
2023-02-13T10:38:01.507Z,102404.97
2023-02-13T10:40:51.602Z,102294.38
2023-02-13T10:43:28.118Z,102226.50
2023-02-13T10:46:25.965Z,102358.88
2023-02-13T10:49:28.349Z,102417.13
2023-02-13T10:52:17.927Z,102411.97
2023-02-13T10:55:12.396Z,102414.66
2023-02-13T10:57:52.132Z,102337.25
2023-02-13T11:00:25.990Z,102392.97
2023-02-13T11:02:53.403Z,102374.66
2023-02-13T11:05:30.317Z,102367.75
2023-02-13T11:07:59.698Z,102339.94
2023-02-13T11:10:27.926Z,102356.44
2023-02-13T11:12:56.504Z,102374.72
2023-02-13T11:15:30.978Z,102379.06
2023-02-13T11:18:12.190Z,102290.41
2023-02-13T11:20:47.234Z,102266.94
2023-02-13T11:23:32.417Z,102369.53
2023-02-13T11:26:05.222Z,102378.19
2023-02-13T11:28:38.548Z,102332.97
2023-02-13T11:31:23.305Z,102341.69
2023-02-13T11:33:51.407Z,102334.72
2023-02-13T11:36:26.340Z,102286.09
2023-02-13T11:39:01.410Z,102341.69
2023-02-13T11:41:29.875Z,102300.81
2023-02-13T11:44:04.241Z,102339.94
2023-02-13T11:46:49.208Z,102330.38
2023-02-13T11:49:24.758Z,102352.13
2023-02-13T11:52:05.425Z,102338.22
2023-02-13T11:54:37.347Z,102356.47
2023-02-13T11:57:21.645Z,102349.47
2023-02-13T11:59:56.278Z,102300.84
2023-02-13T12:02:29.006Z,102345.13
2023-02-13T12:05:16.682Z,102345.13
2023-02-13T12:07:44.981Z,102306.03
2023-02-13T12:10:37.204Z,102345.97
2023-02-13T12:13:15.144Z,102343.34
2023-02-13T12:15:43.567Z,102280.78
2023-02-13T12:18:13.913Z,102265.16
2023-02-13T12:21:02.435Z,102336.38
2023-02-13T12:23:44.400Z,102331.09
2023-02-13T12:26:23.028Z,102281.56
2023-02-13T12:29:02.943Z,102306.63
2023-02-13T12:31:58.134Z,102323.03
2023-02-13T12:35:02.160Z,102280.59
2023-02-13T12:37:34.763Z,102317.94
2023-02-13T12:40:42.803Z,102303.97
2023-02-13T12:43:36.016Z,102270.94
2023-02-13T12:46:39.837Z,102322.03
2023-02-13T12:49:25.437Z,102313.50
2023-02-13T12:52:28.831Z,102258.78
2023-02-13T12:55:17.358Z,102313.50
2023-02-13T12:57:53.380Z,102311.03
2023-02-13T13:00:41.968Z,102229.34
2023-02-13T13:03:26.422Z,102285.78
2023-02-13T13:06:27.032Z,102298.63
2023-02-13T13:09:17.286Z,102283.00
2023-02-13T13:11:43.918Z,102285.50
2023-02-13T13:14:32.215Z,102287.13
2023-02-13T13:17:36.417Z,102293.28
2023-02-13T13:20:25.486Z,102286.38
2023-02-13T13:23:09.336Z,102258.63
2023-02-13T13:26:13.547Z,102282.84
2023-02-13T13:28:45.930Z,102281.97
2023-02-13T13:31:13.866Z,102283.81
2023-02-13T13:33:43.979Z,102253.38
2023-02-13T13:36:44.488Z,102200.50
2023-02-13T13:39:26.755Z,102279.47
2023-02-13T13:41:55.190Z,102269.84
2023-02-13T13:44:40.416Z,102267.31
2023-02-13T13:47:25.388Z,102273.53
2023-02-13T13:49:58.092Z,102269.09
2023-02-13T13:52:38.194Z,102225.59
2023-02-13T13:55:05.792Z,102204.75
2023-02-13T13:58:00.864Z,102244.66
2023-02-13T14:00:30.687Z,102188.31
2023-02-13T14:02:58.260Z,102236.88
2023-02-13T14:05:36.190Z,102204.69
2023-02-13T14:08:24.010Z,102238.38
2023-02-13T14:10:50.731Z,102231.50
2023-02-13T14:13:31.230Z,102155.13
2023-02-13T14:16:01.391Z,102208.09
2023-02-13T14:18:32.832Z,102179.41
2023-02-13T14:21:02.465Z,102232.34
2023-02-13T14:23:53.182Z,102237.63
2023-02-13T14:26:30.352Z,102225.50
2023-02-13T14:29:03.844Z,102203.00
2023-02-13T14:31:44.996Z,102146.56
2023-02-13T14:34:11.685Z,102225.50
2023-02-13T14:36:41.517Z,102212.63
2023-02-13T14:39:30.992Z,102219.38
2023-02-13T14:42:01.403Z,102170.81
2023-02-13T14:44:48.382Z,102205.53
2023-02-13T14:47:20.810Z,102217.78
2023-02-13T14:49:49.902Z,102183.06
2023-02-13T14:52:27.574Z,102169.22
2023-02-13T14:54:56.413Z,102210.72
2023-02-13T14:57:29.832Z,102201.19
2023-02-13T15:00:04.394Z,102213.38
2023-02-13T15:02:51.548Z,102204.69
2023-02-13T15:05:22.797Z,102146.59
2023-02-13T15:08:26.964Z,102203.78
2023-02-13T15:10:56.111Z,102114.50
2023-02-13T15:13:24.860Z,102213.38
2023-02-13T15:15:58.817Z,102187.44
2023-02-13T15:18:29.996Z,102182.19
2023-02-13T15:21:00.757Z,102169.22
2023-02-13T15:23:36.684Z,102154.38
2023-02-13T15:26:07.651Z,102099.03
2023-02-13T15:28:36.214Z,102187.41
2023-02-13T15:31:06.995Z,102195.19
2023-02-13T15:33:48.811Z,102184.91
2023-02-13T15:36:25.582Z,102150.22
2023-02-13T15:39:11.521Z,102211.00
2023-02-13T15:41:45.031Z,102144.22
2023-02-13T15:44:22.496Z,102153.69
2023-02-13T15:46:54.110Z,102139.91
2023-02-13T15:49:26.964Z,102120.84
2023-02-13T15:52:06.178Z,102175.44
2023-02-13T15:54:37.926Z,102202.31
2023-02-13T15:57:07.304Z,102159.81
2023-02-13T15:59:37.596Z,102175.47
2023-02-13T16:02:12.023Z,102211.97
2023-02-13T16:04:41.006Z,102195.44
2023-02-13T16:07:12.184Z,102133.91
2023-02-13T16:09:39.053Z,102153.84
2023-02-13T16:12:24.175Z,102197.28
2023-02-13T16:14:57.226Z,102224.25
2023-02-13T16:17:32.831Z,102214.63
2023-02-13T16:20:08.426Z,102209.44
2023-02-13T16:22:39.007Z,102211.19
2023-02-13T16:25:25.791Z,102207.75
2023-02-13T16:27:59.819Z,102198.25
2023-02-13T16:30:48.257Z,102201.66
2023-02-13T16:33:14.927Z,102200.81
2023-02-13T16:35:45.503Z,102196.50
2023-02-13T16:38:32.201Z,102192.19
2023-02-13T16:41:06.050Z,102191.31
2023-02-13T16:43:57.203Z,102193.97
2023-02-13T16:46:32.135Z,102190.47
2023-02-13T16:49:01.638Z,102190.50
2023-02-13T16:51:40.487Z,102186.16
2023-02-13T16:54:28.662Z,102189.66
2023-02-13T16:57:14.950Z,102171.44
2023-02-13T16:59:48.168Z,102180.97
2023-02-13T17:02:20.816Z,102181.84
2023-02-13T17:05:09.496Z,102136.75
2023-02-13T17:07:51.501Z,102146.25
2023-02-13T17:10:31.579Z,102189.69
2023-02-13T17:13:19.253Z,102133.22
2023-02-13T17:15:51.866Z,102158.41
2023-02-13T17:18:18.598Z,102135.81
2023-02-13T17:20:49.695Z,102109.78
2023-02-13T17:23:18.886Z,102149.72
2023-02-13T17:25:55.087Z,102103.69
2023-02-13T17:28:24.438Z,102101.97
2023-02-13T17:30:52.991Z,102175.75
2023-02-13T17:33:25.256Z,102129.72
2023-02-13T17:35:52.938Z,102166.22
2023-02-13T17:38:22.382Z,102155.78
2023-02-13T17:40:52.251Z,102102.81
2023-02-13T17:43:20.793Z,102180.94
2023-02-13T17:45:49.779Z,102174.84
2023-02-13T17:48:19.675Z,102136.63
2023-02-13T17:50:47.215Z,102137.50
2023-02-13T17:53:23.189Z,102145.31
2023-02-13T17:55:50.603Z,102131.41
2023-02-13T17:58:17.392Z,102144.44
2023-02-13T18:00:44.507Z,102173.97
2023-02-13T18:03:12.796Z,102180.88
2023-02-13T18:05:40.231Z,102158.28
2023-02-13T18:08:07.255Z,102114.72
2023-02-13T18:10:36.327Z,102108.72
2023-02-13T18:13:06.691Z,102179.13
2023-02-13T18:15:35.493Z,102169.59
2023-02-13T18:18:02.285Z,102126.16
2023-02-13T18:20:28.970Z,102168.66
2023-02-13T18:22:55.701Z,102157.41
2023-02-13T18:25:23.712Z,102149.59
2023-02-13T18:27:50.568Z,102145.25
2023-02-13T18:30:19.339Z,102181.69
2023-02-13T18:32:50.500Z,102162.53
2023-02-13T18:35:18.984Z,102092.22
2023-02-13T18:37:45.825Z,102167.78
2023-02-13T18:40:15.121Z,102106.06
2023-02-13T18:42:41.878Z,102146.94
2023-02-13T18:45:09.648Z,102125.09
2023-02-13T18:47:36.533Z,102108.63
2023-02-13T18:50:03.724Z,102145.13
2023-02-13T18:52:30.527Z,102097.41
2023-02-13T18:54:57.322Z,102108.63
2023-02-13T18:57:24.001Z,102127.72
2023-02-13T18:59:51.598Z,102145.97
2023-02-13T19:02:18.319Z,102106.72
2023-02-13T19:04:45.018Z,102182.41
2023-02-13T19:07:11.773Z,102157.16
2023-02-13T19:09:40.512Z,102181.50
2023-02-13T19:12:08.179Z,102117.22
2023-02-13T19:14:34.996Z,102184.91
2023-02-13T19:17:01.787Z,102156.25
2023-02-13T19:19:28.499Z,102129.25
2023-02-13T19:21:55.266Z,102150.19
2023-02-13T19:24:21.967Z,102185.69
2023-02-13T19:26:48.638Z,102121.34
2023-02-13T19:29:15.346Z,102120.47
2023-02-13T19:31:42.182Z,102125.69
2023-02-13T19:34:08.916Z,102117.97
2023-02-13T19:36:35.623Z,102146.59
2023-02-13T19:39:06.278Z,102105.75
2023-02-13T19:41:33.278Z,102146.53
2023-02-13T19:44:01.152Z,102124.75
2023-02-13T19:46:31.001Z,102163.03
2023-02-13T19:48:58.316Z,102158.63
2023-02-13T19:51:27.958Z,102176.88
2023-02-13T19:54:00.403Z,102153.34
2023-02-13T19:56:28.660Z,102168.94
2023-02-13T19:58:58.416Z,102163.81
2023-02-13T20:01:27.201Z,102173.41
2023-02-13T20:03:54.947Z,102160.31
2023-02-13T20:06:24.540Z,102161.13
2023-02-13T20:08:51.870Z,102143.78
2023-02-13T20:11:19.956Z,102146.34
2023-02-13T20:13:47.768Z,102157.56
2023-02-13T20:16:16.932Z,102115.97
2023-02-13T20:18:43.685Z,102090.88
2023-02-13T20:21:13.462Z,102142.16
2023-02-13T20:23:41.335Z,102130.00
2023-02-13T20:26:11.359Z,102138.56
2023-02-13T20:28:38.461Z,102169.84
2023-02-13T20:31:20.143Z,102177.59
2023-02-13T20:33:48.704Z,102187.97
2023-02-13T20:36:30.162Z,102178.44
2023-02-13T20:38:59.890Z,102178.47
2023-02-13T20:41:29.097Z,102148.84
2023-02-13T20:44:00.469Z,102174.16
2023-02-13T20:46:30.177Z,102161.13
2023-02-13T20:48:56.850Z,102193.25
2023-02-13T20:51:23.569Z,102187.94
2023-02-13T20:53:50.395Z,102167.88
2023-02-13T20:56:19.506Z,102136.63
2023-02-13T20:58:48.958Z,102180.13
2023-02-13T21:01:18.896Z,102153.13
2023-02-13T21:03:54.846Z,102168.84
2023-02-13T21:06:28.369Z,102142.59
2023-02-13T21:08:55.961Z,102180.81
2023-02-13T21:11:25.908Z,102191.31
2023-02-13T21:13:53.093Z,102182.50
2023-02-13T21:16:24.767Z,102193.06
2023-02-13T21:18:56.902Z,102187.75
2023-02-13T21:21:27.703Z,102190.38
2023-02-13T21:23:57.691Z,102182.56
2023-02-13T21:26:27.682Z,102190.38
2023-02-13T21:28:57.186Z,102185.09
2023-02-13T21:31:29.596Z,102179.91
2023-02-13T21:34:07.871Z,102194.56
2023-02-13T21:36:37.327Z,102202.31
2023-02-13T21:39:09.194Z,102198.88
2023-02-13T21:41:37.675Z,102160.56
2023-02-13T21:44:04.590Z,102192.63
2023-02-13T21:46:33.224Z,102196.31
2023-02-13T21:49:05.471Z,102155.28
2023-02-13T21:51:34.133Z,102190.94
2023-02-13T21:54:02.028Z,102190.06
2023-02-13T21:56:31.771Z,102183.09
2023-02-13T21:58:59.072Z,102193.38
2023-02-13T22:01:37.229Z,102180.41
2023-02-13T22:04:06.767Z,102192.63
2023-02-13T22:06:35.466Z,102140.38
2023-02-13T22:09:08.274Z,102177.84
2023-02-13T22:11:36.312Z,102189.13
2023-02-13T22:14:05.640Z,102163.78
2023-02-13T22:16:34.862Z,102155.09
2023-02-13T22:19:02.460Z,102176.81
2023-02-13T22:21:31.052Z,102174.09
2023-02-13T22:23:58.248Z,102182.94
2023-02-13T22:26:28.125Z,102170.72
2023-02-13T22:28:58.457Z,102182.09
2023-02-13T22:31:26.056Z,102165.59
2023-02-13T22:34:03.458Z,102159.50
2023-02-13T22:36:39.106Z,102162.97
2023-02-13T22:39:08.242Z,102173.41
2023-02-13T22:41:35.022Z,102145.66
2023-02-13T22:44:01.773Z,102175.13
2023-02-13T22:46:31.144Z,102169.06
2023-02-13T22:48:58.708Z,102163.03
2023-02-13T22:51:29.897Z,102151.88
2023-02-13T22:53:57.771Z,102159.56
2023-02-13T22:56:26.944Z,102126.50
2023-02-13T22:58:54.120Z,102124.56
2023-02-13T23:01:22.901Z,102162.19
2023-02-13T23:03:50.921Z,102137.88
2023-02-13T23:06:18.512Z,102108.38
2023-02-13T23:08:45.748Z,102118.88
2023-02-13T23:11:35.609Z,102132.69
2023-02-13T23:14:04.479Z,102118.63
2023-02-13T23:16:54.725Z,102126.56
2023-02-13T23:19:21.987Z,102131.75
2023-02-13T23:21:49.346Z,102130.91
2023-02-13T23:24:16.208Z,102108.25
2023-02-13T23:26:43.290Z,102123.84
2023-02-13T23:29:10.927Z,102125.63
2023-02-13T23:31:38.135Z,102109.81
2023-02-13T23:34:04.949Z,102080.31
2023-02-13T23:36:31.717Z,102110.84
2023-02-13T23:38:58.414Z,102117.75
2023-02-13T23:41:25.175Z,102110.84
2023-02-13T23:43:51.852Z,102113.44
2023-02-13T23:46:18.658Z,102087.38
2023-02-13T23:48:46.224Z,102092.69
2023-02-13T23:51:13.867Z,102116.78
2023-02-13T23:53:40.592Z,102115.16
2023-02-13T23:56:07.597Z,102120.38
2023-02-13T23:58:34.456Z,102111.72
